Time;durP1;ratioP1;P1;durP2;ratioP2;P2;SDS_P1;SDS_P2;PMS_P1;PMS_P2;Temp;Humidity;BMP_temperature;BMP_pressure;BME280_temperature;BME280_humidity;BME280_pressure;Samples;Min_cycle;Max_cycle;Signal;HPM_P1;HPM_P2
2022/07/12 00:02:15;;;;;;;;;3.33;3.33;;;;;27.80;49.67;101893.06;5077081;28;45761;-75
2022/07/12 00:04:40;;;;;;;;;3.00;3.00;;;;;27.76;50.03;101879.72;5075881;28;45489;-75
2022/07/12 00:07:06;;;;;;;;;3.67;3.00;;;;;27.72;50.06;101883.50;5076670;28;62679;-75
2022/07/12 00:09:32;;;;;;;;;2.33;2.33;;;;;27.68;50.51;101880.00;5079770;28;45521;-75
2022/07/12 00:11:58;;;;;;;;;3.00;3.00;;;;;27.65;51.02;101886.47;5076861;28;63154;-75
2022/07/12 00:14:24;;;;;;;;;4.33;3.00;;;;;27.63;51.60;101879.31;5076490;28;45433;-74
2022/07/12 00:16:49;;;;;;;;;3.67;3.00;;;;;27.61;51.77;101892.09;5058851;28;45456;-74
2022/07/12 00:19:15;;;;;;;;;5.67;4.00;;;;;27.60;51.25;101884.91;5076872;28;45443;-75
2022/07/12 00:21:40;;;;;;;;;2.67;2.67;;;;;27.56;51.88;101899.53;5057898;28;68688;-75
2022/07/12 00:24:06;;;;;;;;;4.33;2.33;;;;;27.54;51.93;101899.63;5075470;28;60157;-75
2022/07/12 00:26:31;;;;;;;;;2.33;2.33;;;;;27.53;52.26;101895.13;5076224;28;45446;-75
2022/07/12 00:28:57;;;;;;;;;2.00;2.00;;;;;27.50;52.42;101900.69;5076066;28;45425;-75
2022/07/12 00:31:22;;;;;;;;;2.67;2.00;;;;;27.50;52.76;101897.09;5076607;28;46276;-75
2022/07/12 00:33:48;;;;;;;;;4.00;4.00;;;;;27.47;52.97;101892.66;5076502;28;45345;-74
2022/07/12 00:36:13;;;;;;;;;3.00;3.00;;;;;27.46;53.33;101882.78;5076254;28;59125;-75
2022/07/12 00:38:38;;;;;;;;;2.33;2.33;;;;;27.42;53.74;101881.13;5077837;28;59475;-75
2022/07/12 00:41:04;;;;;;;;;2.00;2.00;;;;;27.39;53.00;101879.44;5079761;28;65782;-75
2022/07/12 00:43:30;;;;;;;;;2.00;2.00;;;;;27.36;54.71;101879.56;5078604;28;46723;-75
2022/07/12 00:45:55;;;;;;;;;2.33;2.33;;;;;27.34;53.67;101880.59;5080488;28;45501;-75
2022/07/12 00:48:21;;;;;;;;;4.00;3.00;;;;;27.30;53.72;101877.13;5062086;28;45287;-75
2022/07/12 00:50:47;;;;;;;;;3.00;3.00;;;;;27.28;54.07;101886.28;5079317;28;64239;-75
2022/07/12 00:53:13;;;;;;;;;2.33;2.33;;;;;27.22;54.65;101871.16;5080072;28;45455;-75
2022/07/12 00:55:38;;;;;;;;;2.67;2.67;;;;;27.21;54.70;101876.63;5079469;28;45476;-75
2022/07/12 00:58:04;;;;;;;;;3.00;3.00;;;;;27.18;55.07;101871.34;5078096;28;57820;-75
2022/07/12 01:00:30;;;;;;;;;2.00;2.00;;;;;27.14;55.17;101873.28;5079183;28;50535;-75
2022/07/12 01:02:57;;;;;;;;;4.67;2.00;;;;;27.10;54.98;101867.09;5060842;28;45520;-75
2022/07/12 01:05:23;;;;;;;;;5.00;4.00;;;;;27.08;55.61;101865.41;5079504;28;45286;-74
2022/07/12 01:07:49;;;;;;;;;3.00;3.00;;;;;27.05;55.79;101868.19;5080196;28;45574;-75
2022/07/12 01:10:15;;;;;;;;;3.00;2.00;;;;;27.01;55.79;101874.72;5079661;28;47714;-75
2022/07/12 01:12:41;;;;;;;;;3.67;3.67;;;;;26.98;56.38;101886.56;5078967;28;45406;-75
2022/07/12 01:15:08;;;;;;;;;2.67;2.67;;;;;26.94;56.67;101876.78;5079382;28;45408;-75
2022/07/12 01:17:33;;;;;;;;;6.00;3.00;;;;;26.89;56.81;101868.81;5079483;28;45433;-75
2022/07/12 01:19:59;;;;;;;;;5.67;4.00;;;;;26.84;56.38;101870.84;5078715;28;50865;-75
2022/07/12 01:22:33;;;;;;;;;3.00;3.00;;;;;26.81;57.04;101875.53;5060833;28;45336;-75
2022/07/12 01:25:03;;;;;;;;;3.00;3.00;;;;;26.77;57.07;101876.59;5079208;28;45415;-75
2022/07/12 01:27:29;;;;;;;;;3.33;2.67;;;;;26.71;57.41;101868.69;5078639;28;45614;-75
2022/07/12 01:29:54;;;;;;;;;5.00;4.00;;;;;26.67;57.69;101864.34;5078543;28;46957;-75
2022/07/12 01:32:26;;;;;;;;;4.33;3.00;;;;;26.61;58.43;101860.94;5079476;27;45323;-74
2022/07/12 01:35:00;;;;;;;;;6.00;4.00;;;;;26.56;58.42;101862.94;5061912;28;45485;-75
2022/07/12 01:37:30;;;;;;;;;2.33;2.33;;;;;26.52;58.84;101852.28;5079310;28;45354;-75
2022/07/12 01:39:57;;;;;;;;;3.00;2.00;;;;;26.49;58.40;101856.00;5060817;28;46754;-75
2022/07/12 01:42:24;;;;;;;;;3.00;3.00;;;;;26.45;58.76;101854.34;5079046;28;45381;-75
2022/07/12 01:44:50;;;;;;;;;5.00;3.00;;;;;26.42;59.64;101857.19;5078721;28;45541;-75
2022/07/12 01:47:17;;;;;;;;;3.33;2.67;;;;;26.37;59.97;101856.47;5079002;28;45399;-75
2022/07/12 01:49:43;;;;;;;;;2.67;2.67;;;;;26.33;59.94;101861.09;5073945;28;47192;-76
2022/07/12 01:52:09;;;;;;;;;3.00;3.00;;;;;26.29;59.81;101864.84;5078313;28;69312;-75
2022/07/12 01:54:35;;;;;;;;;5.00;3.00;;;;;26.24;60.72;101872.28;5079424;28;45398;-74
2022/07/12 01:57:01;;;;;;;;;4.00;3.00;;;;;26.19;60.94;101866.16;5078694;28;45545;-74
2022/07/12 01:59:27;;;;;;;;;3.33;2.33;;;;;26.18;60.77;101866.22;5077912;28;46589;-75
2022/07/12 02:01:54;;;;;;;;;3.00;3.00;;;;;26.16;61.09;101862.69;5060493;28;46699;-75
2022/07/12 02:04:19;;;;;;;;;4.33;3.00;;;;;26.12;60.93;101867.31;5041273;28;61589;-75
2022/07/12 02:06:45;;;;;;;;;4.33;4.33;;;;;26.11;61.74;101865.56;5078577;28;45277;-75
2022/07/12 02:09:11;;;;;;;;;5.00;3.67;;;;;26.08;62.11;101871.09;5078845;28;46132;-75
2022/07/12 02:11:37;;;;;;;;;4.67;4.00;;;;;26.05;61.61;101869.38;5078868;28;45367;-75
2022/07/12 02:14:02;;;;;;;;;5.00;3.33;;;;;26.04;62.01;101874.84;5077708;28;62553;-74
2022/07/12 02:16:27;;;;;;;;;5.33;3.67;;;;;26.01;62.79;101870.44;5078218;28;58665;-75
2022/07/12 02:18:53;;;;;;;;;5.00;4.67;;;;;25.99;62.96;101871.41;5076152;28;59598;-75
2022/07/12 02:21:18;;;;;;;;;2.67;2.67;;;;;25.92;62.65;101862.66;5077657;28;65181;-75
2022/07/12 02:23:43;;;;;;;;;3.00;3.00;;;;;25.91;62.88;101863.59;5078109;28;45603;-74
2022/07/12 02:26:09;;;;;;;;;4.00;4.00;;;;;25.87;63.44;101864.63;5078263;28;59189;-75
2022/07/12 02:28:34;;;;;;;;;3.33;3.33;;;;;25.83;63.32;101858.47;5077202;27;70352;-75
2022/07/12 02:30:59;;;;;;;;;3.33;3.00;;;;;25.80;64.25;101866.69;5077422;28;64776;-75
2022/07/12 02:33:25;;;;;;;;;5.00;3.67;;;;;25.80;63.90;101871.22;5076793;28;63203;-75
2022/07/12 02:35:50;;;;;;;;;4.00;4.00;;;;;25.76;64.42;101869.56;5078589;28;45370;-75
2022/07/12 02:38:16;;;;;;;;;3.00;3.00;;;;;25.71;64.08;101861.56;5077851;28;47481;-75
2022/07/12 02:40:53;;;;;;;;;3.00;3.00;;;;;25.69;64.57;101862.56;5077963;28;59380;-75
2022/07/12 02:43:25;;;;;;;;;3.00;3.00;;;;;25.65;64.72;101861.78;5078576;28;45367;-74
2022/07/12 02:45:52;;;;;;;;;3.67;3.67;;;;;25.61;65.60;101871.81;5078949;28;45621;-75
2022/07/12 02:48:18;;;;;;;;;3.67;3.67;;;;;25.57;65.32;101872.88;5077960;28;46295;-75
2022/07/12 02:50:43;;;;;;;;;5.00;5.00;;;;;25.56;65.29;101883.75;5075838;28;45407;-74
2022/07/12 02:53:09;;;;;;;;;4.00;4.00;;;;;25.54;65.72;101880.22;5078338;28;45285;-75
2022/07/12 02:55:35;;;;;;;;;3.33;3.33;;;;;25.51;66.42;101886.59;5078278;28;45656;-75
2022/07/12 02:58:01;;;;;;;;;4.00;4.00;;;;;25.48;65.93;101877.72;5077148;28;47056;-75
2022/07/12 03:00:27;;;;;;;;;7.00;4.33;;;;;25.44;66.36;101873.34;5077661;28;45285;-75
2022/07/12 03:02:52;;;;;;;;;4.33;4.33;;;;;25.42;66.33;101878.81;5077776;28;45293;-75
2022/07/12 03:05:18;;;;;;;;;4.00;4.00;;;;;25.41;67.57;101881.56;5074689;28;55487;-74
2022/07/12 03:07:43;;;;;;;;;6.33;5.00;;;;;25.38;67.42;101887.97;5068150;28;65594;-75
2022/07/12 03:10:09;;;;;;;;;5.33;5.00;;;;;25.34;67.80;101881.78;5076954;28;65373;-75
2022/07/12 03:12:34;;;;;;;;;6.00;5.00;;;;;25.33;67.47;101887.25;5076151;28;58738;-74
2022/07/12 03:15:00;;;;;;;;;5.00;5.00;;;;;25.29;68.13;101882.88;5078075;28;45538;-74
2022/07/12 03:17:25;;;;;;;;;5.00;5.00;;;;;25.28;68.32;101889.22;5077708;28;47470;-75
2022/07/12 03:19:51;;;;;;;;;5.00;5.00;;;;;25.25;68.64;101883.94;5076834;28;45360;-75
2022/07/12 03:22:17;;;;;;;;;6.33;5.00;;;;;25.23;68.94;101883.94;5077438;28;45469;-74
2022/07/12 03:24:42;;;;;;;;;5.00;5.00;;;;;25.21;69.14;101880.44;5077736;28;45576;-75
2022/07/12 03:27:07;;;;;;;;;6.00;6.00;;;;;25.18;69.57;101879.63;5075877;28;68112;-74
2022/07/12 03:29:33;;;;;;;;;4.67;4.67;;;;;25.16;69.62;101882.41;5077004;28;62261;-75
2022/07/12 03:31:58;;;;;;;;;4.00;4.00;;;;;25.12;69.28;101880.72;5077457;28;45400;-75
2022/07/12 03:34:23;;;;;;;;;5.00;5.00;;;;;25.09;69.93;101886.25;5078385;28;46497;-75
2022/07/12 03:36:49;;;;;;;;;4.00;4.00;;;;;25.07;70.04;101885.41;5076704;28;68377;-75
2022/07/12 03:39:14;;;;;;;;;6.00;6.00;;;;;25.03;70.65;101883.69;5076638;28;58505;-75
2022/07/12 03:41:40;;;;;;;;;6.00;6.00;;;;;25.00;70.32;101887.38;5076515;28;59878;-74
2022/07/12 03:44:06;;;;;;;;;8.33;6.67;;;;;24.97;70.51;101887.47;5077780;28;45336;-75
2022/07/12 03:46:32;;;;;;;;;6.00;6.00;;;;;24.93;71.24;101887.63;5076130;28;46640;-75
2022/07/12 03:48:58;;;;;;;;;9.00;7.67;;;;;24.90;71.10;101902.13;5077375;27;45408;-75
2022/07/12 03:51:24;;;;;;;;;7.67;7.67;;;;;24.86;71.61;101905.84;5074608;28;45344;-75
2022/07/12 03:53:49;;;;;;;;;8.33;7.67;;;;;24.85;71.55;101898.69;5077477;28;45672;-75
2022/07/12 03:57:13;;;;;;;;;10.33;8.33;;;;;24.82;72.04;101901.47;5075580;28;67257;-75
2022/07/12 03:59:00;;;;;;;;;9.00;9.00;;;;;24.80;72.02;101909.63;5076351;28;45485;-74
2022/07/12 04:01:25;;;;;;;;;7.00;7.00;;;;;24.78;72.21;101910.63;5077091;28;45379;-75
2022/07/12 04:03:51;;;;;;;;;12.00;10.00;;;;;24.75;72.51;101914.28;5076779;28;57949;-75
2022/07/12 04:06:16;;;;;;;;;12.00;10.00;;;;;24.72;72.73;101909.00;5069756;28;48240;-75
2022/07/12 04:08:41;;;;;;;;;11.33;9.00;;;;;24.70;72.53;101912.66;5075179;28;62231;-75
2022/07/12 04:11:07;;;;;;;;;10.67;9.67;;;;;24.69;72.82;101913.59;5076232;28;61781;-74
2022/07/12 04:13:33;;;;;;;;;10.33;10.00;;;;;24.65;73.62;101914.63;5075313;28;63067;-75
2022/07/12 04:15:58;;;;;;;;;12.00;9.33;;;;;24.60;73.69;101911.16;5077215;28;47770;-75
2022/07/12 04:18:24;;;;;;;;;8.33;8.33;;;;;24.55;73.54;101908.59;5076410;28;45437;-75
2022/07/12 04:20:49;;;;;;;;;11.33;11.00;;;;;24.53;74.36;101914.06;5077166;28;45248;-74
2022/07/12 04:23:14;;;;;;;;;10.00;10.00;;;;;24.51;74.37;101915.94;5076742;28;45271;-76
2022/07/12 04:25:40;;;;;;;;;10.33;8.67;;;;;24.49;74.46;101919.59;5075845;28;47156;-75
2022/07/12 04:28:05;;;;;;;;;10.00;8.67;;;;;24.46;74.99;101920.59;5076245;28;45569;-75
2022/07/12 04:30:31;;;;;;;;;10.33;9.00;;;;;24.43;75.16;101914.38;5076067;28;64748;-78
2022/07/12 04:32:56;;;;;;;;;11.67;9.00;;;;;24.43;75.41;101917.97;5075804;28;57630;-76
2022/07/12 04:35:21;;;;;;;;;10.33;8.00;;;;;24.41;75.67;101916.25;5069326;28;68150;-77
2022/07/12 04:37:47;;;;;;;;;9.33;8.00;;;;;24.38;75.36;101922.59;5068496;28;45414;-77
2022/07/12 04:40:12;;;;;;;;;7.00;7.00;;;;;24.37;75.88;101912.75;5075402;28;56523;-79
2022/07/12 04:42:37;;;;;;;;;9.00;8.33;;;;;24.39;76.04;101923.47;5074711;28;45394;-77
2022/07/12 04:45:03;;;;;;;;;11.00;7.00;;;;;24.37;76.10;101917.25;5076041;28;46277;-77
2022/07/12 04:47:29;;;;;;;;;8.00;6.67;;;;;24.37;76.00;101918.13;5075943;28;45567;-77
2022/07/12 04:49:54;;;;;;;;;8.33;6.00;;;;;24.36;76.53;101921.78;5068951;28;45249;-78
2022/07/12 04:52:19;;;;;;;;;8.33;7.67;;;;;24.35;76.45;101930.81;5073984;28;45576;-78
2022/07/12 04:54:45;;;;;;;;;8.33;7.67;;;;;24.34;77.00;101920.00;5074705;28;70925;-77
2022/07/12 04:57:10;;;;;;;;;8.00;6.00;;;;;24.36;76.92;101924.47;5178518;22;67460;-77
2022/07/12 04:59:35;;;;;;;;;6.67;6.67;;;;;24.35;77.34;101928.09;5076581;28;45238;-77
2022/07/12 05:02:02;;;;;;;;;6.00;5.33;;;;;24.36;77.67;101929.00;5074030;28;57535;-77
2022/07/12 05:04:27;;;;;;;;;9.33;7.00;;;;;24.37;77.99;101931.63;5066758;28;46210;-78
2022/07/12 05:06:52;;;;;;;;;6.00;6.00;;;;;24.39;77.96;101934.28;5071824;28;63485;-78
2022/07/12 05:09:18;;;;;;;;;7.00;7.00;;;;;24.39;77.84;101934.28;5075370;28;63636;-78
2022/07/12 05:11:43;;;;;;;;;6.67;6.67;;;;;24.42;78.00;101932.38;5075389;28;56218;-77
2022/07/12 05:14:09;;;;;;;;;7.67;6.33;;;;;24.44;77.95;101927.81;5075233;28;69415;-78
2022/07/12 05:16:34;;;;;;;;;6.67;5.33;;;;;24.49;78.49;101936.66;5075949;28;45536;-77
2022/07/12 05:19:01;;;;;;;;;7.67;6.00;;;;;24.51;78.55;101942.94;5074642;28;58489;-77
2022/07/12 05:21:26;;;;;;;;;8.33;7.00;;;;;24.54;78.18;101947.34;5076207;28;45306;-77
2022/07/12 05:23:52;;;;;;;;;6.67;5.00;;;;;24.58;78.20;101940.03;5075655;28;65359;-77
2022/07/12 05:26:18;;;;;;;;;5.67;5.00;;;;;24.63;78.26;101946.19;5078592;28;45474;-77
2022/07/12 05:28:44;;;;;;;;;6.67;6.33;;;;;24.64;78.57;101956.94;5078571;28;45529;-78
2022/07/12 05:31:10;;;;;;;;;7.33;6.67;;;;;24.66;78.26;101956.88;5077936;28;45648;-77
2022/07/12 05:33:35;;;;;;;;;8.00;7.00;;;;;24.65;78.45;101957.81;5079538;28;47651;-77
2022/07/12 05:36:01;;;;;;;;;8.00;5.67;;;;;24.69;78.21;101960.41;5078834;28;58236;-77
2022/07/12 05:38:26;;;;;;;;;6.67;5.67;;;;;24.70;77.87;101964.84;5079730;28;45297;-77
2022/07/12 05:40:52;;;;;;;;;7.00;7.00;;;;;24.72;78.61;101964.84;5079789;28;45138;-77
2022/07/12 05:43:17;;;;;;;;;5.67;5.67;;;;;24.71;78.17;101965.75;5078391;28;46797;-77
2022/07/12 05:45:42;;;;;;;;;9.33;6.00;;;;;24.74;77.94;101968.38;5078972;28;45348;-77
2022/07/12 05:48:08;;;;;;;;;8.00;5.00;;;;;24.76;78.14;101971.91;5078588;28;45483;-77
2022/07/12 05:50:33;;;;;;;;;5.00;5.00;;;;;24.76;77.74;101966.50;5066129;28;45229;-79
2022/07/12 05:55:44;;;;;;;;;6.67;5.67;;;;;24.76;78.01;101972.78;5079003;28;45335;-78
2022/07/12 05:58:10;;;;;;;;;7.33;6.00;;;;;24.78;78.50;101968.22;5077698;28;45418;-78
2022/07/12 06:00:36;;;;;;;;;5.00;5.00;;;;;24.79;78.61;101974.53;5078604;28;45354;-78
2022/07/12 06:03:01;;;;;;;;;6.00;6.00;;;;;24.82;78.60;101979.81;5077623;28;47398;-77
2022/07/12 06:05:27;;;;;;;;;6.00;6.00;;;;;24.81;78.31;101980.75;5075452;28;45482;-77
2022/07/12 06:07:52;;;;;;;;;6.00;6.00;;;;;24.83;77.99;101985.19;5076241;28;46556;-77
2022/07/12 06:10:17;;;;;;;;;6.00;6.00;;;;;24.86;77.93;101986.91;5072504;28;45586;-77
2022/07/12 06:12:43;;;;;;;;;7.67;7.33;;;;;24.88;78.64;101981.47;5074245;28;69074;-78
2022/07/12 06:15:09;;;;;;;;;7.67;4.67;;;;;24.90;78.64;101991.28;5074618;28;45467;-79
2022/07/12 06:17:35;;;;;;;;;8.67;7.00;;;;;24.93;77.95;101996.63;5074911;28;45315;-78
2022/07/12 06:20:00;;;;;;;;;5.33;5.00;;;;;24.92;78.30;101989.41;5076791;28;45615;-78
2022/07/12 06:22:26;;;;;;;;;6.33;4.67;;;;;24.95;78.29;101994.72;5077740;28;47609;-79
2022/07/12 06:24:51;;;;;;;;;5.00;5.00;;;;;24.97;78.12;101994.69;5073724;28;64225;-78
2022/07/12 06:27:16;;;;;;;;;8.33;7.00;;;;;24.97;78.51;101994.69;5075518;28;64966;-78
2022/07/12 06:29:47;;;;;;;;;8.67;8.00;;;;;24.98;78.47;101991.94;5076451;28;64265;-78
2022/07/12 06:32:13;;;;;;;;;8.00;5.33;;;;;25.00;78.15;101995.47;5078207;28;47229;-78
2022/07/12 06:34:38;;;;;;;;;6.00;6.00;;;;;25.01;77.78;101996.38;5078309;28;45368;-78
2022/07/12 06:37:03;;;;;;;;;9.00;6.33;;;;;25.02;78.22;101993.59;5076857;28;45249;-78
2022/07/12 06:39:29;;;;;;;;;7.67;7.33;;;;;25.04;78.38;101996.28;5078920;28;45644;-76
2022/07/12 06:41:54;;;;;;;;;7.00;5.00;;;;;25.06;78.43;101995.31;5077591;28;65533;-77
2022/07/12 06:44:19;;;;;;;;;7.00;5.67;;;;;25.07;77.88;101988.97;5076044;28;66312;-77
2022/07/12 06:46:45;;;;;;;;;8.00;7.00;;;;;25.06;77.94;101992.63;5077852;28;55134;-77
2022/07/12 06:49:10;;;;;;;;;8.00;7.00;;;;;25.10;78.84;101997.94;5077954;28;45572;-76
2022/07/12 06:51:39;;;;;;;;;7.00;7.00;;;;;25.09;78.00;101994.34;5077265;28;64719;-76
2022/07/12 06:54:04;;;;;;;;;7.00;7.00;;;;;25.11;78.55;101997.00;5078216;28;45374;-76
2022/07/12 06:56:30;;;;;;;;;8.33;8.00;;;;;25.11;78.71;101997.00;5077292;28;45386;-76
2022/07/12 06:58:55;;;;;;;;;8.00;8.00;;;;;25.13;78.53;102000.53;5076446;28;61071;-76
2022/07/12 07:01:20;;;;;;;;;7.67;6.00;;;;;25.17;78.04;102004.91;5077408;28;64008;-76
2022/07/12 07:03:46;;;;;;;;;7.00;7.00;;;;;25.19;78.63;102003.03;5076216;28;45457;-77
2022/07/12 07:06:11;;;;;;;;;8.33;7.00;;;;;25.20;77.97;101999.44;5069202;28;63574;-76
2022/07/12 07:08:36;;;;;;;;;7.67;5.67;;;;;25.21;78.25;101999.38;5078198;28;45626;-77
2022/07/12 07:11:02;;;;;;;;;9.00;7.67;;;;;25.25;78.54;102001.06;5078362;28;46278;-75
2022/07/12 07:13:28;;;;;;;;;9.00;7.00;;;;;25.31;78.00;102002.69;5077044;28;65268;-76
2022/07/12 07:15:53;;;;;;;;;8.33;8.33;;;;;25.32;77.56;102005.31;5077383;28;64699;-77
2022/07/12 07:18:18;;;;;;;;;6.67;6.33;;;;;25.36;78.29;102003.41;5077037;28;56855;-76
2022/07/12 07:20:44;;;;;;;;;6.67;6.67;;;;;25.39;77.55;102011.41;5077510;28;56897;-77
2022/07/12 07:23:16;;;;;;;;;9.00;8.00;;;;;25.41;78.06;102009.56;5077861;28;45415;-77
2022/07/12 07:25:42;;;;;;;;;8.67;6.67;;;;;25.43;77.34;102004.97;5077836;28;45280;-76
2022/07/12 07:28:08;;;;;;;;;8.33;7.00;;;;;25.48;78.46;102011.13;5077291;28;45403;-76
2022/07/12 07:33:17;;;;;;;;;9.33;7.67;;;;;25.54;77.55;102007.34;5077902;28;45359;-76
2022/07/12 07:35:43;;;;;;;;;8.00;6.33;;;;;25.59;78.51;102011.66;5077607;28;45230;-77
2022/07/12 07:38:09;;;;;;;;;8.00;7.00;;;;;25.63;77.85;102008.88;5076939;28;45412;-77
2022/07/12 07:40:35;;;;;;;;;7.67;6.33;;;;;25.67;77.99;102003.28;5077535;28;47207;-76
2022/07/12 07:43:00;;;;;;;;;7.00;7.00;;;;;25.70;77.72;102005.00;5078349;28;45272;-77
2022/07/12 07:45:25;;;;;;;;;9.67;6.67;;;;;25.73;77.18;102002.22;5076987;28;65568;-77
2022/07/12 07:47:51;;;;;;;;;9.00;6.00;;;;;25.77;77.02;102004.78;5076825;28;63475;-77
2022/07/12 07:50:16;;;;;;;;;10.00;6.67;;;;;25.83;76.95;102011.78;5076437;28;68438;-77
2022/07/12 07:52:42;;;;;;;;;9.00;8.33;;;;;25.86;77.04;102011.69;5077560;28;45350;-77
2022/07/12 07:55:07;;;;;;;;;9.00;9.00;;;;;25.89;76.40;102006.19;5076970;28;45417;-77
2022/07/12 07:57:33;;;;;;;;;7.00;7.00;;;;;25.94;75.98;102019.53;5076576;28;45521;-78
2022/07/12 07:59:58;;;;;;;;;13.00;8.00;;;;;25.98;76.12;102024.81;5077000;28;46598;-77
2022/07/12 08:02:23;;;;;;;;;6.00;6.00;;;;;26.03;76.29;102022.81;5076799;28;63153;-77
2022/07/12 08:04:49;;;;;;;;;9.33;8.00;;;;;26.07;76.86;102020.91;5077341;28;45498;-76
2022/07/12 08:07:14;;;;;;;;;7.00;7.00;;;;;26.11;76.18;102022.59;5076045;28;58919;-76
2022/07/12 08:09:40;;;;;;;;;7.33;7.33;;;;;26.15;76.06;102018.81;5075800;28;68442;-76
2022/07/12 08:12:05;;;;;;;;;8.67;7.33;;;;;26.20;76.09;102015.94;5077367;28;45291;-76
2022/07/12 08:14:31;;;;;;;;;7.67;7.67;;;;;26.24;75.98;102020.31;5077362;28;45469;-76
2022/07/12 08:16:56;;;;;;;;;8.67;6.67;;;;;26.29;75.83;102021.03;5076868;28;51933;-77
2022/07/12 08:19:21;;;;;;;;;10.67;7.67;;;;;26.31;74.88;102016.44;5076369;28;46762;-77
2022/07/12 08:21:47;;;;;;;;;15.00;9.00;;;;;26.34;74.83;102022.63;5076694;28;57015;-77
2022/07/12 08:24:12;;;;;;;;;11.33;8.00;;;;;26.37;75.02;102025.25;5076362;28;59088;-76
2022/07/12 08:26:37;;;;;;;;;6.67;6.33;;;;;26.40;74.94;102018.81;5076635;28;45239;-77
2022/07/12 08:29:03;;;;;;;;;9.67;7.33;;;;;26.44;75.19;102012.41;5076042;28;47249;-76
2022/07/12 08:31:28;;;;;;;;;10.33;8.33;;;;;26.48;74.58;102015.88;5075701;28;62646;-77
2022/07/12 08:33:54;;;;;;;;;9.67;9.00;;;;;26.51;74.71;102010.34;5076994;28;45603;-77
2022/07/12 08:36:19;;;;;;;;;7.00;5.67;;;;;26.53;75.40;102009.34;5076290;28;48700;-77
2022/07/12 08:38:44;;;;;;;;;10.00;9.00;;;;;26.56;74.65;102013.75;5076697;28;47816;-77
2022/07/12 08:41:14;;;;;;;;;5.33;5.33;;;;;26.58;74.45;102012.78;5077026;28;45308;-77
2022/07/12 08:43:39;;;;;;;;;5.67;5.67;;;;;26.61;74.11;102009.94;5076590;28;45544;-76
2022/07/12 08:46:10;;;;;;;;;7.00;5.67;;;;;26.62;73.06;102017.13;5077188;28;45315;-76
2022/07/12 08:48:36;;;;;;;;;9.33;8.33;;;;;26.66;73.51;102017.03;5076720;28;47516;-77
2022/07/12 08:51:09;;;;;;;;;5.33;5.33;;;;;26.69;72.72;102015.09;5073455;28;45232;-77
2022/07/12 08:53:35;;;;;;;;;6.00;6.00;;;;;26.73;72.51;102014.00;5076664;28;45422;-76
2022/07/12 08:56:01;;;;;;;;;6.00;6.00;;;;;26.76;73.53;102016.63;5076370;28;45657;-77
2022/07/12 08:58:26;;;;;;;;;5.00;5.00;;;;;26.81;72.69;102017.31;5075152;28;46636;-77
2022/07/12 09:00:51;;;;;;;;;5.00;5.00;;;;;26.85;72.77;102013.56;5079802;28;45326;-76
2022/07/12 09:03:18;;;;;;;;;6.67;5.00;;;;;26.89;73.16;102009.78;5080009;28;45415;-76
2022/07/12 09:05:54;;;;;;;;;5.67;5.00;;;;;26.93;72.60;102001.53;5076674;28;45625;-77
2022/07/12 09:08:30;;;;;;;;;4.00;4.00;;;;;26.96;71.22;102004.13;5077105;28;46604;-76
2022/07/12 09:11:01;;;;;;;;;11.67;11.33;;;;;26.97;70.75;102008.63;5080169;28;45366;-76
2022/07/12 09:13:48;;;;;;;;;6.00;6.00;;;;;26.99;71.11;102015.72;5080627;28;45217;-76
2022/07/12 09:16:18;;;;;;;;;4.00;4.00;;;;;27.03;71.06;102016.50;5079587;28;45463;-76
2022/07/12 09:18:45;;;;;;;;;4.00;4.00;;;;;27.06;71.43;102002.81;5078769;28;46644;-76
2022/07/12 09:21:20;;;;;;;;;5.00;5.00;;;;;27.08;70.71;102012.69;5079306;28;45221;-76
2022/07/12 09:23:54;;;;;;;;;6.00;6.00;;;;;27.11;69.53;102011.69;5061836;28;45435;-77
2022/07/12 09:26:20;;;;;;;;;10.33;6.00;;;;;27.16;68.84;102012.38;5078427;28;45331;-77
2022/07/12 09:28:49;;;;;;;;;8.67;4.00;;;;;27.17;67.85;102008.75;5078804;28;46792;-76
2022/07/12 09:31:14;;;;;;;;;6.67;5.00;;;;;27.21;67.37;102015.78;5079643;28;45486;-76
2022/07/12 09:36:24;;;;;;;;;4.00;4.00;;;;;27.30;68.86;102026.28;5079843;28;45338;-77
2022/07/12 09:39:01;;;;;;;;;6.00;6.00;;;;;27.33;67.36;102020.75;5079083;28;46749;-76
2022/07/12 09:41:27;;;;;;;;;8.67;8.33;;;;;27.39;67.20;102016.91;5079548;28;46094;-78
2022/07/12 09:43:53;;;;;;;;;5.67;5.67;;;;;27.46;68.10;102017.53;5079958;28;45386;-77
2022/07/12 09:46:18;;;;;;;;;8.00;6.33;;;;;27.52;67.77;102020.00;5079757;28;45377;-76
2022/07/12 09:48:44;;;;;;;;;6.00;6.00;;;;;27.55;67.78;102009.03;5079113;28;46680;-77
2022/07/12 09:51:13;;;;;;;;;6.00;6.00;;;;;27.60;66.75;102016.03;5078573;28;45460;-76
2022/07/12 09:53:47;;;;;;;;;6.00;5.00;;;;;27.64;65.80;102017.66;5078944;28;45471;-77
2022/07/12 09:56:14;;;;;;;;;7.67;5.00;;;;;27.72;63.88;102019.22;5079852;28;45432;-76
2022/07/12 09:58:57;;;;;;;;;6.33;5.33;;;;;27.79;63.31;102026.13;5077860;28;46647;-76
2022/07/12 10:01:24;;;;;;;;;6.00;4.33;;;;;27.86;63.46;102027.66;5079209;28;45431;-76
2022/07/12 10:03:50;;;;;;;;;4.67;3.00;;;;;27.92;63.61;102013.81;5078979;28;45371;-76
2022/07/12 10:06:27;;;;;;;;;3.67;3.67;;;;;27.99;63.81;102020.75;5079336;28;45481;-76
2022/07/12 10:08:54;;;;;;;;;5.00;5.00;;;;;28.02;63.47;102020.63;5059960;28;47551;-77
2022/07/12 10:11:20;;;;;;;;;9.33;7.00;;;;;28.05;61.65;102020.47;5077071;28;45476;-77
2022/07/12 10:13:46;;;;;;;;;5.00;4.00;;;;;28.08;62.14;102022.19;5059880;28;45524;-77
2022/07/12 10:16:13;;;;;;;;;4.33;4.33;;;;;28.09;62.54;102010.38;5077441;28;55989;-76
2022/07/12 10:18:38;;;;;;;;;5.67;4.00;;;;;28.10;60.71;102010.31;5078835;28;47680;-77
2022/07/12 10:21:19;;;;;;;;;6.00;4.00;;;;;28.13;57.13;102012.03;5078749;28;45347;-76
2022/07/12 10:23:44;;;;;;;;;6.00;4.00;;;;;28.13;57.29;102004.75;5077547;28;45277;-77
2022/07/12 10:26:19;;;;;;;;;5.00;5.00;;;;;28.16;55.59;102006.44;5078361;28;56730;-77
2022/07/12 10:28:56;;;;;;;;;4.00;4.00;;;;;28.20;56.63;102010.78;5078448;27;46439;-77
2022/07/12 10:31:25;;;;;;;;;4.00;4.00;;;;;28.23;53.99;102013.38;5077434;28;45753;-76
2022/07/12 10:34:09;;;;;;;;;4.67;3.33;;;;;28.26;54.48;102009.63;5078455;28;45459;-76
2022/07/12 10:36:55;;;;;;;;;6.67;5.00;;;;;28.30;53.88;102014.88;5078353;28;45569;-77
2022/07/12 10:39:27;;;;;;;;;5.33;5.33;;;;;28.34;54.31;102008.38;5077995;28;46855;-76
2022/07/12 10:42:07;;;;;;;;;3.67;3.67;;;;;28.37;55.96;102013.66;5077963;28;45525;-77
2022/07/12 10:44:41;;;;;;;;;3.67;3.00;;;;;28.37;53.21;102013.66;5076945;28;45266;-77
2022/07/12 10:47:07;;;;;;;;;5.33;4.00;;;;;28.42;54.84;102010.75;5077752;28;45589;-75
2022/07/12 10:49:35;;;;;;;;;5.00;4.00;;;;;28.47;56.05;102021.41;5077362;28;46482;-77
2022/07/12 10:52:10;;;;;;;;;7.00;4.33;;;;;28.47;54.14;102014.13;5077743;28;45442;-76
2022/07/12 10:54:55;;;;;;;;;5.00;5.00;;;;;28.53;53.06;102015.69;5078258;28;45539;-77
2022/07/12 10:57:43;;;;;;;;;3.00;3.00;;;;;28.57;52.33;102012.78;5062462;28;45664;-76
2022/07/12 11:00:10;;;;;;;;;2.33;2.33;;;;;28.63;53.22;102009.75;5078276;28;47135;-77
2022/07/12 11:02:35;;;;;;;;;5.00;3.67;;;;;28.69;53.84;102009.47;5078215;28;45421;-77
2022/07/12 11:05:01;;;;;;;;;4.33;4.00;;;;;28.76;54.42;102007.34;5077847;28;45375;-77
2022/07/12 11:07:27;;;;;;;;;3.33;3.33;;;;;28.79;50.70;102006.34;5068728;28;64496;-77
2022/07/12 11:09:54;;;;;;;;;4.00;4.00;;;;;28.83;51.26;102005.25;5078242;28;46235;-77
2022/07/12 11:12:19;;;;;;;;;5.00;3.00;;;;;28.88;52.96;101997.75;5078232;28;45310;-78
2022/07/12 11:14:45;;;;;;;;;6.00;6.00;;;;;28.90;53.84;101999.44;5076837;28;62959;-77
2022/07/12 11:17:11;;;;;;;;;2.00;2.00;;;;;28.95;53.66;101999.25;5078316;28;45772;-76
2022/07/12 11:19:36;;;;;;;;;5.00;3.00;;;;;29.01;51.75;102003.53;5077278;28;57527;-77
2022/07/12 11:22:01;;;;;;;;;3.33;3.33;;;;;29.09;51.32;101996.78;5076908;28;65248;-78
2022/07/12 11:24:31;;;;;;;;;5.00;5.00;;;;;29.18;52.79;101998.16;5077872;28;45431;-76
2022/07/12 11:26:59;;;;;;;;;4.67;2.33;;;;;29.28;49.83;101985.88;5077768;28;45323;-77
2022/07/12 11:29:25;;;;;;;;;3.67;3.67;;;;;29.48;46.91;101998.50;5076969;28;46404;-77
2022/07/12 11:32:00;;;;;;;;;4.33;3.00;;;;;29.63;48.34;101991.44;5078216;28;45272;-76